createdAt,value
2023-06-11T00:00:46.851Z,100.00
2023-06-11T00:01:48.422Z,100.00
2023-06-11T00:02:51.062Z,100.00
2023-06-11T00:03:52.741Z,100.00
2023-06-11T00:04:54.513Z,100.00
2023-06-11T00:05:56.152Z,100.00
2023-06-11T00:06:58.077Z,100.00
2023-06-11T00:07:59.661Z,100.00
2023-06-11T00:09:01.287Z,100.00
2023-06-11T00:10:03.309Z,100.00
2023-06-11T00:11:04.861Z,100.00
2023-06-11T00:12:07.133Z,100.00
2023-06-11T00:13:08.749Z,100.00
2023-06-11T00:14:11.335Z,100.00
2023-06-11T00:15:13.179Z,100.00
2023-06-11T00:16:15.529Z,100.00
2023-06-11T00:17:17.268Z,100.00
2023-06-11T00:18:18.963Z,100.00
2023-06-11T00:19:20.608Z,100.00
2023-06-11T00:20:22.321Z,100.00
2023-06-11T00:21:23.992Z,100.00
2023-06-11T00:22:25.557Z,100.00
2023-06-11T00:23:27.123Z,100.00
2023-06-11T00:24:28.748Z,100.00
2023-06-11T00:25:30.423Z,100.00
2023-06-11T00:26:31.969Z,100.00
2023-06-11T00:27:37.420Z,100.00
2023-06-11T00:28:39.145Z,100.00
2023-06-11T00:29:40.708Z,100.00
2023-06-11T00:30:42.313Z,100.00
2023-06-11T00:31:43.973Z,100.00
2023-06-11T00:32:45.674Z,100.00
2023-06-11T00:33:47.360Z,100.00
2023-06-11T00:34:48.952Z,100.00
2023-06-11T00:35:50.545Z,100.00
2023-06-11T00:36:52.528Z,100.00
2023-06-11T00:37:54.184Z,100.00
2023-06-11T00:38:55.750Z,100.00
2023-06-11T00:39:57.387Z,100.00
2023-06-11T00:41:00.157Z,100.00
2023-06-11T00:42:01.823Z,100.00
2023-06-11T00:43:03.471Z,100.00
2023-06-11T00:44:05.405Z,100.00
2023-06-11T00:45:07.937Z,100.00
2023-06-11T00:46:09.688Z,100.00
2023-06-11T00:47:11.405Z,100.00
2023-06-11T00:48:13.023Z,100.00
2023-06-11T00:49:18.630Z,100.00
2023-06-11T00:50:20.516Z,100.00
2023-06-11T00:51:22.855Z,100.00
2023-06-11T00:52:24.427Z,100.00
2023-06-11T00:53:26.238Z,100.00
2023-06-11T00:54:27.806Z,100.00
2023-06-11T00:55:29.425Z,100.00
2023-06-11T00:56:31.408Z,100.00
2023-06-11T00:57:33.027Z,100.00
2023-06-11T00:58:34.701Z,100.00
2023-06-11T00:59:36.798Z,100.00
2023-06-11T01:00:38.363Z,100.00
2023-06-11T01:01:49.479Z,100.00
2023-06-11T01:03:00.740Z,100.00
2023-06-11T01:04:04.688Z,100.00
2023-06-11T01:05:08.747Z,100.00
2023-06-11T01:06:13.669Z,100.00
2023-06-11T01:07:17.645Z,100.00
2023-06-11T01:08:21.580Z,100.00
2023-06-11T01:09:28.620Z,100.00
2023-06-11T01:10:30.310Z,100.00
2023-06-11T01:11:32.656Z,100.00
2023-06-11T01:12:36.188Z,100.00
2023-06-11T01:13:38.107Z,100.00
2023-06-11T01:14:40.560Z,100.00
2023-06-11T01:15:42.172Z,100.00
2023-06-11T01:16:49.837Z,100.00
2023-06-11T01:17:59.900Z,100.00
2023-06-11T01:19:27.168Z,100.00
2023-06-11T01:20:33.774Z,100.00
2023-06-11T01:21:47.371Z,100.00
2023-06-11T01:23:16.954Z,100.00
2023-06-11T01:24:22.557Z,100.00
2023-06-11T01:25:42.344Z,100.00
2023-06-11T01:26:44.028Z,100.00
2023-06-11T01:28:02.714Z,100.00
2023-06-11T01:29:09.250Z,100.00
2023-06-11T01:30:12.875Z,100.00
2023-06-11T01:31:16.845Z,100.00
2023-06-11T01:32:23.001Z,100.00
2023-06-11T01:33:25.180Z,100.00
2023-06-11T01:34:28.782Z,100.00
2023-06-11T01:35:30.900Z,100.00
2023-06-11T01:36:33.194Z,100.00
2023-06-11T01:37:34.789Z,100.00
2023-06-11T01:38:36.720Z,100.00
2023-06-11T01:39:39.179Z,100.00
2023-06-11T01:40:53.582Z,100.00
2023-06-11T01:41:55.219Z,100.00
2023-06-11T01:42:57.339Z,100.00
2023-06-11T01:43:59.073Z,100.00
2023-06-11T01:45:00.737Z,100.00
2023-06-11T01:46:04.582Z,100.00
2023-06-11T01:47:06.739Z,100.00
2023-06-11T01:48:08.473Z,100.00
2023-06-11T01:49:12.101Z,100.00
2023-06-11T01:50:14.463Z,100.00
2023-06-11T01:51:16.252Z,100.00
2023-06-11T01:52:17.911Z,100.00
2023-06-11T01:53:19.570Z,100.00
2023-06-11T01:54:21.150Z,100.00
2023-06-11T01:55:22.760Z,100.00
2023-06-11T01:56:24.398Z,100.00
2023-06-11T01:57:26.015Z,100.00
2023-06-11T01:58:27.800Z,100.00
2023-06-11T01:59:29.421Z,100.00
2023-06-11T02:00:31.059Z,100.00
2023-06-11T02:01:32.696Z,100.00
2023-06-11T02:02:34.588Z,100.00
2023-06-11T02:03:36.525Z,100.00
2023-06-11T02:04:38.262Z,100.00
2023-06-11T02:05:40.028Z,100.00
2023-06-11T02:06:41.693Z,100.00
2023-06-11T02:07:43.362Z,100.00
2023-06-11T02:08:44.972Z,100.00
2023-06-11T02:09:46.643Z,100.00
2023-06-11T02:10:48.334Z,100.00
2023-06-11T02:11:49.994Z,100.00
2023-06-11T02:12:51.916Z,100.00
2023-06-11T02:13:53.593Z,100.00
2023-06-11T02:14:55.333Z,100.00
2023-06-11T02:15:57.705Z,100.00
2023-06-11T02:16:59.674Z,100.00
2023-06-11T02:18:09.017Z,100.00
2023-06-11T02:19:10.897Z,100.00
2023-06-11T02:20:12.624Z,100.00
2023-06-11T02:21:15.149Z,100.00
2023-06-11T02:22:17.038Z,100.00
2023-06-11T02:23:18.906Z,100.00
2023-06-11T02:24:20.912Z,100.00
2023-06-11T02:25:23.126Z,100.00
2023-06-11T02:26:26.172Z,100.00
2023-06-11T02:27:27.935Z,100.00
2023-06-11T02:28:29.763Z,100.00
2023-06-11T02:29:31.694Z,100.00
2023-06-11T02:30:33.565Z,100.00
2023-06-11T02:31:35.284Z,100.00
2023-06-11T02:32:37.238Z,100.00
2023-06-11T02:33:39.093Z,100.00
2023-06-11T02:34:40.843Z,100.00
2023-06-11T02:35:42.641Z,100.00
2023-06-11T02:36:44.283Z,100.00
2023-06-11T02:37:45.983Z,100.00
2023-06-11T02:38:47.982Z,100.00
2023-06-11T02:39:49.628Z,100.00
2023-06-11T02:40:51.281Z,100.00
2023-06-11T02:41:53.186Z,100.00
2023-06-11T02:42:54.873Z,100.00
2023-06-11T02:43:56.893Z,100.00
2023-06-11T02:44:58.526Z,100.00
2023-06-11T02:46:00.248Z,100.00
2023-06-11T02:47:01.951Z,100.00
2023-06-11T02:48:04.119Z,100.00
2023-06-11T02:49:06.227Z,100.00
2023-06-11T02:50:08.206Z,100.00
2023-06-11T02:51:10.163Z,100.00
2023-06-11T02:52:11.800Z,100.00
2023-06-11T02:53:13.428Z,100.00
2023-06-11T02:54:15.044Z,100.00
2023-06-11T02:55:18.066Z,100.00
2023-06-11T02:56:19.635Z,100.00
2023-06-11T02:57:21.262Z,100.00
2023-06-11T02:58:22.841Z,100.00
2023-06-11T02:59:24.498Z,100.00
2023-06-11T03:00:26.133Z,100.00
2023-06-11T03:01:27.798Z,100.00
2023-06-11T03:02:29.513Z,100.00
2023-06-11T03:03:31.631Z,100.00
2023-06-11T03:04:34.756Z,100.00
2023-06-11T03:05:36.411Z,100.00
2023-06-11T03:06:38.210Z,100.00
2023-06-11T03:07:40.393Z,100.00
2023-06-11T03:08:43.296Z,100.00
2023-06-11T03:09:44.902Z,100.00
2023-06-11T03:10:46.497Z,100.00
2023-06-11T03:11:48.166Z,100.00
2023-06-11T03:12:49.967Z,100.00
2023-06-11T03:13:51.681Z,100.00
2023-06-11T03:14:54.312Z,100.00
2023-06-11T03:15:56.654Z,100.00
2023-06-11T03:16:59.745Z,100.00
2023-06-11T03:18:01.457Z,100.00
2023-06-11T03:19:03.430Z,100.00
2023-06-11T03:20:06.138Z,100.00
2023-06-11T03:21:07.735Z,100.00
2023-06-11T03:22:09.560Z,100.00
2023-06-11T03:23:11.362Z,100.00
2023-06-11T03:24:15.122Z,100.00
2023-06-11T03:25:16.832Z,100.00
2023-06-11T03:26:18.522Z,100.00
2023-06-11T03:27:20.981Z,100.00
2023-06-11T03:28:22.638Z,100.00
2023-06-11T03:29:24.386Z,100.00
2023-06-11T03:30:30.608Z,100.00
2023-06-11T03:31:32.503Z,100.00
2023-06-11T03:32:34.373Z,100.00
2023-06-11T03:33:35.921Z,100.00
2023-06-11T03:34:38.540Z,100.00
2023-06-11T03:35:40.238Z,100.00
2023-06-11T03:36:53.244Z,100.00
2023-06-11T03:37:54.956Z,100.00
2023-06-11T03:38:59.175Z,100.00
2023-06-11T03:40:01.585Z,100.00
2023-06-11T03:41:04.982Z,100.00
2023-06-11T03:42:08.655Z,100.00
2023-06-11T03:43:10.802Z,100.00
2023-06-11T03:44:14.928Z,100.00
2023-06-11T03:45:16.517Z,100.00
2023-06-11T03:46:18.832Z,100.00
2023-06-11T03:47:20.596Z,100.00
2023-06-11T03:48:23.049Z,100.00
2023-06-11T03:49:24.826Z,100.00
2023-06-11T03:50:26.438Z,100.00
2023-06-11T03:51:28.243Z,100.00
2023-06-11T03:52:29.860Z,100.00
2023-06-11T03:53:31.554Z,100.00
2023-06-11T03:54:33.507Z,100.00
2023-06-11T03:55:36.260Z,100.00
2023-06-11T03:56:38.006Z,100.00
2023-06-11T03:57:39.700Z,100.00
2023-06-11T03:58:41.432Z,100.00
2023-06-11T03:59:43.119Z,100.00
2023-06-11T04:00:44.756Z,100.00
2023-06-11T04:01:46.443Z,100.00
2023-06-11T04:02:48.659Z,100.00
2023-06-11T04:03:52.777Z,100.00
2023-06-11T04:04:54.556Z,100.00
2023-06-11T04:05:56.237Z,100.00
2023-06-11T04:06:57.856Z,100.00
2023-06-11T04:07:59.646Z,100.00
2023-06-11T04:09:01.588Z,100.00
2023-06-11T04:10:04.934Z,100.00
2023-06-11T04:11:09.673Z,100.00
2023-06-11T04:12:11.397Z,100.00
2023-06-11T04:13:13.599Z,100.00
2023-06-11T04:14:15.323Z,100.00
2023-06-11T04:15:16.949Z,100.00
2023-06-11T04:16:19.963Z,100.00
2023-06-11T04:17:22.421Z,100.00
2023-06-11T04:18:24.192Z,100.00
2023-06-11T04:19:27.335Z,100.00
2023-06-11T04:20:29.791Z,100.00
2023-06-11T04:21:31.826Z,100.00
2023-06-11T04:22:33.602Z,100.00
2023-06-11T04:23:35.332Z,100.00
2023-06-11T04:24:37.414Z,100.00
2023-06-11T04:25:39.348Z,100.00
2023-06-11T04:26:43.621Z,100.00
2023-06-11T04:27:49.832Z,100.00
2023-06-11T04:28:52.927Z,100.00
2023-06-11T04:29:56.081Z,100.00
2023-06-11T04:30:58.160Z,100.00
2023-06-11T04:32:00.739Z,100.00
2023-06-11T04:33:02.444Z,100.00
2023-06-11T04:34:04.189Z,100.00
2023-06-11T04:35:10.016Z,100.00
2023-06-11T04:36:15.454Z,100.00
2023-06-11T04:37:18.478Z,100.00
2023-06-11T04:38:20.933Z,100.00
2023-06-11T04:39:22.613Z,100.00
2023-06-11T04:40:24.999Z,100.00
2023-06-11T04:41:27.368Z,100.00
2023-06-11T04:42:29.438Z,100.00
2023-06-11T04:43:31.092Z,100.00
2023-06-11T04:44:32.716Z,100.00
2023-06-11T04:45:34.531Z,100.00
2023-06-11T04:46:37.132Z,100.00
2023-06-11T04:47:41.405Z,100.00
2023-06-11T04:48:43.050Z,100.00
2023-06-11T04:49:44.672Z,100.00
2023-06-11T04:50:46.388Z,100.00
2023-06-11T04:51:48.567Z,100.00
2023-06-11T04:52:51.332Z,100.00
2023-06-11T04:53:53.017Z,100.00
2023-06-11T04:54:55.023Z,100.00
2023-06-11T04:55:58.192Z,100.00
2023-06-11T04:57:00.859Z,100.00
2023-06-11T04:58:03.383Z,100.00
2023-06-11T04:59:05.133Z,100.00
2023-06-11T05:00:07.943Z,100.00
2023-06-11T05:01:10.929Z,100.00
2023-06-11T05:02:12.634Z,100.00
2023-06-11T05:03:17.716Z,100.00
2023-06-11T05:04:19.355Z,100.00
2023-06-11T05:05:22.301Z,100.00
2023-06-11T05:06:24.960Z,100.00
2023-06-11T05:07:26.806Z,100.00
2023-06-11T05:08:29.248Z,100.00
2023-06-11T05:09:32.745Z,100.00
2023-06-11T05:10:34.529Z,100.00
2023-06-11T05:11:36.281Z,100.00
2023-06-11T05:12:38.022Z,100.00
2023-06-11T05:13:39.603Z,100.00
2023-06-11T05:14:43.743Z,100.00
2023-06-11T05:15:45.414Z,100.00
2023-06-11T05:16:47.083Z,100.00
2023-06-11T05:17:52.198Z,100.00
2023-06-11T05:18:54.968Z,100.00
2023-06-11T05:19:56.579Z,100.00
2023-06-11T05:20:58.188Z,100.00
2023-06-11T05:21:59.782Z,100.00
2023-06-11T05:23:02.087Z,100.00
2023-06-11T05:24:06.228Z,100.00
2023-06-11T05:25:08.438Z,100.00
2023-06-11T05:26:10.296Z,100.00
2023-06-11T05:27:15.526Z,100.00
2023-06-11T05:28:18.965Z,100.00
2023-06-11T05:29:24.514Z,100.00
2023-06-11T05:30:26.771Z,100.00
2023-06-11T05:31:29.947Z,100.00
2023-06-11T05:32:32.010Z,100.00
2023-06-11T05:33:35.754Z,100.00
2023-06-11T05:34:37.368Z,100.00
2023-06-11T05:35:44.729Z,100.00
2023-06-11T05:36:46.368Z,100.00
2023-06-11T05:37:49.412Z,100.00
2023-06-11T05:38:51.145Z,100.00
2023-06-11T05:39:53.017Z,100.00
2023-06-11T05:40:56.086Z,100.00
2023-06-11T05:41:57.883Z,100.00
2023-06-11T05:43:00.161Z,100.00
2023-06-11T05:44:01.814Z,100.00
2023-06-11T05:45:05.128Z,100.00
2023-06-11T05:46:07.399Z,100.00
2023-06-11T05:47:09.325Z,100.00
2023-06-11T05:48:11.185Z,100.00
2023-06-11T05:49:13.770Z,100.00
2023-06-11T05:50:15.406Z,100.00
2023-06-11T05:51:17.150Z,100.00
2023-06-11T05:52:18.794Z,100.00
2023-06-11T05:53:20.721Z,100.00
2023-06-11T05:54:22.528Z,100.00
2023-06-11T05:55:24.217Z,100.00
2023-06-11T05:56:25.909Z,100.00
2023-06-11T05:57:29.831Z,100.00
2023-06-11T05:58:34.487Z,100.00
2023-06-11T05:59:38.082Z,100.00
2023-06-11T06:00:39.679Z,100.00
2023-06-11T06:01:41.298Z,100.00
2023-06-11T06:02:43.049Z,100.00
2023-06-11T06:03:50.357Z,100.00
2023-06-11T06:04:52.207Z,100.00
2023-06-11T06:05:54.923Z,100.00
2023-06-11T06:06:57.510Z,100.00
2023-06-11T06:07:59.201Z,100.00
2023-06-11T06:09:00.979Z,100.00
2023-06-11T06:10:03.578Z,100.00
2023-06-11T06:11:06.465Z,100.00
2023-06-11T06:12:08.967Z,100.00
2023-06-11T06:13:10.997Z,100.00
2023-06-11T06:14:13.718Z,100.00
2023-06-11T06:15:16.144Z,100.00
2023-06-11T06:16:18.317Z,100.00
2023-06-11T06:17:20.464Z,100.00
2023-06-11T06:18:22.225Z,100.00
2023-06-11T06:19:23.885Z,100.00
2023-06-11T06:20:26.164Z,100.00
2023-06-11T06:21:28.893Z,100.00
2023-06-11T06:22:30.464Z,100.00
2023-06-11T06:23:32.524Z,100.00
2023-06-11T06:24:38.826Z,100.00
2023-06-11T06:25:41.501Z,100.00
2023-06-11T06:26:45.556Z,100.00
2023-06-11T06:27:47.278Z,100.00
2023-06-11T06:28:49.907Z,100.00
2023-06-11T06:29:51.675Z,100.00
2023-06-11T06:30:53.285Z,100.00
2023-06-11T06:31:56.059Z,100.00
2023-06-11T06:32:58.940Z,100.00
2023-06-11T06:34:02.235Z,100.00
2023-06-11T06:35:08.724Z,100.00
2023-06-11T06:36:11.808Z,100.00
2023-06-11T06:37:15.869Z,100.00
2023-06-11T06:38:20.214Z,100.00
2023-06-11T06:39:23.595Z,100.00
2023-06-11T06:40:25.947Z,100.00
2023-06-11T06:41:28.581Z,100.00
2023-06-11T06:42:36.363Z,100.00
2023-06-11T06:43:39.606Z,100.00
2023-06-11T06:44:47.428Z,100.00
2023-06-11T06:45:49.713Z,100.00
2023-06-11T06:46:58.234Z,100.00
2023-06-11T06:48:00.063Z,100.00
2023-06-11T06:49:02.995Z,100.00
2023-06-11T06:50:04.956Z,100.00
2023-06-11T06:51:07.027Z,100.00
2023-06-11T06:52:09.658Z,100.00
2023-06-11T06:53:11.751Z,100.00
2023-06-11T06:54:13.836Z,100.00
2023-06-11T06:55:16.089Z,100.00
2023-06-11T06:56:19.051Z,100.00
2023-06-11T06:57:21.015Z,100.00
2023-06-11T06:58:22.687Z,100.00
2023-06-11T06:59:24.302Z,100.00
2023-06-11T07:00:25.982Z,100.00
2023-06-11T07:01:27.766Z,100.00
2023-06-11T07:02:30.154Z,100.00
2023-06-11T07:03:32.508Z,100.00
2023-06-11T07:04:34.173Z,100.00
2023-06-11T07:05:35.888Z,100.00
2023-06-11T07:06:38.875Z,100.00
2023-06-11T07:07:43.345Z,100.00
2023-06-11T07:08:45.728Z,100.00
2023-06-11T07:09:47.363Z,100.00
2023-06-11T07:10:51.084Z,100.00
2023-06-11T07:11:56.518Z,100.00
2023-06-11T07:13:00.643Z,100.00
2023-06-11T07:14:02.938Z,100.00
2023-06-11T07:15:05.301Z,100.00
2023-06-11T07:16:07.522Z,100.00
2023-06-11T07:17:10.842Z,100.00
2023-06-11T07:18:12.904Z,100.00
2023-06-11T07:19:15.595Z,100.00
2023-06-11T07:20:17.434Z,100.00
2023-06-11T07:21:19.552Z,100.00
2023-06-11T07:22:22.759Z,100.00
2023-06-11T07:23:24.696Z,100.00
2023-06-11T07:24:26.358Z,100.00
2023-06-11T07:25:28.828Z,100.00
2023-06-11T07:26:30.423Z,100.00
2023-06-11T07:27:32.852Z,100.00
2023-06-11T07:28:34.519Z,100.00
2023-06-11T07:29:36.957Z,100.00
2023-06-11T07:30:38.601Z,100.00
2023-06-11T07:31:41.400Z,100.00
2023-06-11T07:32:43.162Z,100.00
2023-06-11T07:33:44.931Z,100.00
2023-06-11T07:34:46.712Z,100.00
2023-06-11T07:35:48.399Z,100.00
2023-06-11T07:36:50.065Z,100.00
2023-06-11T07:37:52.048Z,100.00
2023-06-11T07:38:54.026Z,100.00
2023-06-11T07:39:55.929Z,100.00
2023-06-11T07:40:58.214Z,100.00
2023-06-11T07:42:00.572Z,100.00
2023-06-11T07:43:02.310Z,100.00
2023-06-11T07:44:06.071Z,100.00
2023-06-11T07:45:08.587Z,100.00
2023-06-11T07:46:11.239Z,100.00
2023-06-11T07:47:13.512Z,100.00
2023-06-11T07:48:16.011Z,100.00
2023-06-11T07:49:17.934Z,100.00
2023-06-11T07:50:19.568Z,100.00
2023-06-11T07:51:22.280Z,100.00
2023-06-11T07:52:30.200Z,100.00
2023-06-11T07:53:38.725Z,100.00
2023-06-11T07:54:41.023Z,100.00
2023-06-11T07:55:42.828Z,100.00
2023-06-11T07:56:44.667Z,100.00
2023-06-11T07:57:46.331Z,100.00
2023-06-11T07:58:48.221Z,100.00
2023-06-11T07:59:50.051Z,100.00
2023-06-11T08:00:51.708Z,100.00
2023-06-11T08:01:53.442Z,100.00
2023-06-11T08:02:55.092Z,100.00
2023-06-11T08:03:57.637Z,100.00
2023-06-11T08:04:59.235Z,100.00
2023-06-11T08:06:00.883Z,100.00
2023-06-11T08:07:02.820Z,100.00
2023-06-11T08:08:04.691Z,100.00
2023-06-11T08:09:06.399Z,100.00
2023-06-11T08:10:08.549Z,100.00
2023-06-11T08:11:10.456Z,100.00
2023-06-11T08:12:12.782Z,100.00
2023-06-11T08:13:14.423Z,100.00
2023-06-11T08:14:16.059Z,100.00
2023-06-11T08:15:17.744Z,100.00
2023-06-11T08:16:19.521Z,100.00
2023-06-11T08:17:21.310Z,100.00
2023-06-11T08:18:23.121Z,100.00
2023-06-11T08:19:24.873Z,100.00
2023-06-11T08:20:26.537Z,100.00
2023-06-11T08:21:28.143Z,100.00
2023-06-11T08:22:29.759Z,100.00
2023-06-11T08:23:31.541Z,100.00
2023-06-11T08:24:33.181Z,100.00
2023-06-11T08:25:34.975Z,100.00
2023-06-11T08:26:36.582Z,100.00
2023-06-11T08:27:38.342Z,100.00
2023-06-11T08:28:40.240Z,100.00
2023-06-11T08:29:41.877Z,100.00
2023-06-11T08:30:43.497Z,100.00
2023-06-11T08:31:45.128Z,100.00
2023-06-11T08:32:46.857Z,100.00
2023-06-11T08:33:48.549Z,100.00
2023-06-11T08:34:50.100Z,100.00
2023-06-11T08:35:51.689Z,100.00
2023-06-11T08:36:53.356Z,100.00
2023-06-11T08:37:55.020Z,100.00
2023-06-11T08:38:56.641Z,100.00
2023-06-11T08:39:58.233Z,100.00
2023-06-11T08:40:59.824Z,100.00
2023-06-11T08:42:01.618Z,100.00
2023-06-11T08:43:03.257Z,100.00
2023-06-11T08:44:05.133Z,100.00
2023-06-11T08:45:07.327Z,100.00
2023-06-11T08:46:16.451Z,100.00
2023-06-11T08:47:21.711Z,100.00
2023-06-11T08:48:25.153Z,100.00
2023-06-11T08:49:26.913Z,100.00
2023-06-11T08:50:31.025Z,100.00
2023-06-11T08:51:37.559Z,100.00
2023-06-11T08:52:41.771Z,100.00
2023-06-11T08:53:43.759Z,100.00
2023-06-11T08:54:45.459Z,100.00
2023-06-11T08:55:47.144Z,100.00
2023-06-11T08:56:49.567Z,100.00
2023-06-11T08:57:51.247Z,100.00
2023-06-11T08:58:54.151Z,100.00
2023-06-11T08:59:56.092Z,100.00
2023-06-11T09:00:57.870Z,100.00
2023-06-11T09:01:59.498Z,100.00
2023-06-11T09:03:02.680Z,100.00
2023-06-11T09:04:04.790Z,100.00
2023-06-11T09:05:06.805Z,100.00
2023-06-11T09:06:08.552Z,100.00
2023-06-11T09:07:10.902Z,100.00
2023-06-11T09:08:12.511Z,100.00
2023-06-11T09:09:14.073Z,100.00
2023-06-11T09:10:16.224Z,100.00
2023-06-11T09:11:17.809Z,100.00
2023-06-11T09:12:19.388Z,100.00
2023-06-11T09:13:26.199Z,100.00
2023-06-11T09:14:27.895Z,100.00
2023-06-11T09:15:29.588Z,100.00
2023-06-11T09:16:39.682Z,100.00
2023-06-11T09:17:44.320Z,99.79
2023-06-11T09:18:45.942Z,99.27
2023-06-11T09:19:47.551Z,97.02
2023-06-11T09:20:53.398Z,96.88
2023-06-11T09:21:57.084Z,96.80
2023-06-11T09:22:58.739Z,98.12
2023-06-11T09:24:08.309Z,97.90
2023-06-11T09:25:11.862Z,97.67
2023-06-11T09:26:17.847Z,98.81
2023-06-11T09:27:22.268Z,99.43
2023-06-11T09:28:35.391Z,99.78
2023-06-11T09:29:37.027Z,100.00
2023-06-11T09:30:38.706Z,99.75
2023-06-11T09:31:40.348Z,100.00
2023-06-11T09:32:43.251Z,98.48
2023-06-11T09:33:45.261Z,98.41
2023-06-11T09:34:47.014Z,99.12
2023-06-11T09:35:48.630Z,96.92
2023-06-11T09:36:50.300Z,95.88
2023-06-11T09:37:53.365Z,98.16
2023-06-11T09:38:55.728Z,95.60
2023-06-11T09:39:57.419Z,96.08
2023-06-11T09:40:59.122Z,96.70
2023-06-11T09:42:00.763Z,96.00
2023-06-11T09:43:06.822Z,94.57
2023-06-11T09:44:09.135Z,91.97
2023-06-11T09:45:21.358Z,92.66
2023-06-11T09:46:24.355Z,93.96
2023-06-11T09:47:27.833Z,94.40
2023-06-11T09:48:30.874Z,93.57
2023-06-11T09:49:33.036Z,94.96
2023-06-11T09:50:34.861Z,93.74
2023-06-11T09:51:36.780Z,92.80
2023-06-11T09:52:38.816Z,92.31
2023-06-11T09:53:42.284Z,92.02
2023-06-11T09:54:44.010Z,90.35
2023-06-11T09:55:57.125Z,91.97
2023-06-11T09:57:09.957Z,89.99
2023-06-11T09:58:13.501Z,90.03
2023-06-11T09:59:18.095Z,88.98
2023-06-11T10:00:19.837Z,88.35
2023-06-11T10:01:21.599Z,89.16
2023-06-11T10:02:23.297Z,89.29
2023-06-11T10:03:25.545Z,87.77
2023-06-11T10:04:27.233Z,88.06
2023-06-11T10:05:29.367Z,88.96
2023-06-11T10:06:35.664Z,91.50
2023-06-11T10:07:48.436Z,94.21
2023-06-11T10:08:53.559Z,96.73
2023-06-11T10:09:56.010Z,94.75
2023-06-11T10:11:03.160Z,94.09
2023-06-11T10:12:06.592Z,92.55
2023-06-11T10:13:08.804Z,91.08
2023-06-11T10:14:15.236Z,91.27
2023-06-11T10:15:17.619Z,90.67
2023-06-11T10:16:21.578Z,90.82
2023-06-11T10:17:23.440Z,90.05
2023-06-11T10:18:25.747Z,92.09
2023-06-11T10:19:35.546Z,89.78
2023-06-11T10:20:37.523Z,88.28
2023-06-11T10:21:46.801Z,89.94
2023-06-11T10:22:48.431Z,90.92
2023-06-11T10:23:55.416Z,89.93
2023-06-11T10:25:01.839Z,86.82
2023-06-11T10:26:03.946Z,86.57
2023-06-11T10:27:06.748Z,87.71
2023-06-11T10:28:09.662Z,89.60
2023-06-11T10:29:11.484Z,88.58
2023-06-11T10:30:23.788Z,88.11
2023-06-11T10:31:30.646Z,88.12
2023-06-11T10:32:33.201Z,87.36
2023-06-11T10:33:43.235Z,90.15
2023-06-11T10:34:46.048Z,88.25
2023-06-11T10:35:48.129Z,88.57
2023-06-11T10:36:49.852Z,85.28
2023-06-11T10:38:01.389Z,85.45
2023-06-11T10:39:23.510Z,86.50
2023-06-11T10:40:32.707Z,84.96
2023-06-11T10:41:38.137Z,85.50
2023-06-11T10:42:42.082Z,86.34
2023-06-11T10:43:48.094Z,86.16
2023-06-11T10:44:49.770Z,88.91
2023-06-11T10:46:05.576Z,86.60
2023-06-11T10:47:07.590Z,83.38
2023-06-11T10:48:09.732Z,83.59
2023-06-11T10:49:14.634Z,84.13
2023-06-11T10:50:26.857Z,83.08
2023-06-11T10:51:40.316Z,84.67
2023-06-11T10:52:53.375Z,84.39
2023-06-11T10:54:00.654Z,82.37
2023-06-11T10:55:02.924Z,81.22
2023-06-11T10:56:04.758Z,84.09
2023-06-11T10:57:07.099Z,81.44
2023-06-11T10:58:09.291Z,81.49
2023-06-11T10:59:10.860Z,83.25
2023-06-11T11:00:13.447Z,84.86
2023-06-11T11:01:15.250Z,86.26
2023-06-11T11:02:17.428Z,85.51
2023-06-11T11:03:20.749Z,84.80
2023-06-11T11:04:22.872Z,84.95
2023-06-11T11:05:26.436Z,85.05
2023-06-11T11:06:28.597Z,83.22
2023-06-11T11:07:30.487Z,85.20
2023-06-11T11:08:32.219Z,82.07
2023-06-11T11:09:33.810Z,82.25
2023-06-11T11:10:35.445Z,82.99
2023-06-11T11:11:38.814Z,82.14
2023-06-11T11:12:42.656Z,79.58
2023-06-11T11:13:46.578Z,81.42
2023-06-11T11:14:48.221Z,80.71
2023-06-11T11:15:51.347Z,82.90
2023-06-11T11:16:53.072Z,83.24
2023-06-11T11:17:56.335Z,78.31
2023-06-11T11:18:58.042Z,76.92
2023-06-11T11:19:59.758Z,79.12
2023-06-11T11:21:01.365Z,78.64
2023-06-11T11:22:03.068Z,77.52
2023-06-11T11:23:06.904Z,77.90
2023-06-11T11:24:11.611Z,79.10
2023-06-11T11:25:13.724Z,79.69
2023-06-11T11:26:18.273Z,78.96
2023-06-11T11:27:23.382Z,80.23
2023-06-11T11:28:25.539Z,80.17
2023-06-11T11:29:27.133Z,79.90
2023-06-11T11:30:30.336Z,78.60
2023-06-11T11:31:32.086Z,78.50
2023-06-11T11:32:35.248Z,79.35
2023-06-11T11:33:37.051Z,78.27
2023-06-11T11:34:41.073Z,79.16
2023-06-11T11:35:46.835Z,79.60
2023-06-11T11:36:48.472Z,81.63
2023-06-11T11:37:50.563Z,80.21
2023-06-11T11:38:52.298Z,78.71
2023-06-11T11:39:54.074Z,80.05
2023-06-11T11:40:56.964Z,79.16
2023-06-11T11:42:00.067Z,78.62
2023-06-11T11:43:03.684Z,79.63
2023-06-11T11:44:06.144Z,83.18
2023-06-11T11:45:13.089Z,81.89
2023-06-11T11:46:19.503Z,79.95
2023-06-11T11:47:22.934Z,80.37
2023-06-11T11:48:25.744Z,79.75
2023-06-11T11:49:33.317Z,82.08
2023-06-11T11:50:35.362Z,80.80
2023-06-11T11:51:41.158Z,75.63
2023-06-11T11:52:42.762Z,75.28
2023-06-11T11:53:44.443Z,74.90
2023-06-11T11:54:46.128Z,74.83
2023-06-11T11:56:01.020Z,72.25
2023-06-11T11:57:09.479Z,73.23
2023-06-11T11:58:13.022Z,74.55
2023-06-11T11:59:40.434Z,75.96
2023-06-11T12:00:51.281Z,75.52
2023-06-11T12:01:59.918Z,77.08
2023-06-11T12:03:11.832Z,76.26
2023-06-11T12:04:13.535Z,77.52
2023-06-11T12:05:15.225Z,76.04
2023-06-11T12:06:24.163Z,74.67
2023-06-11T12:07:25.985Z,76.09
2023-06-11T12:08:29.080Z,74.09
2023-06-11T12:09:30.663Z,72.46
2023-06-11T12:10:32.563Z,73.11
2023-06-11T12:11:34.198Z,72.49
2023-06-11T12:12:35.822Z,73.34
2023-06-11T12:13:37.406Z,72.78
2023-06-11T12:14:39.237Z,71.30
2023-06-11T12:15:40.891Z,71.82
2023-06-11T12:16:48.867Z,72.98
2023-06-11T12:17:50.464Z,72.61
2023-06-11T12:18:52.878Z,72.45
2023-06-11T12:19:54.479Z,73.76
2023-06-11T12:20:56.163Z,74.83
2023-06-11T12:21:57.785Z,74.67
2023-06-11T12:22:59.408Z,74.03
2023-06-11T12:24:01.038Z,75.12
2023-06-11T12:25:02.817Z,76.26
2023-06-11T12:26:04.788Z,74.75
2023-06-11T12:27:09.475Z,74.97
2023-06-11T12:28:12.984Z,74.32
2023-06-11T12:29:14.917Z,73.86
2023-06-11T12:30:16.605Z,73.24
2023-06-11T12:31:18.212Z,73.66
2023-06-11T12:32:22.029Z,72.03
2023-06-11T12:33:25.302Z,70.91
2023-06-11T12:34:26.886Z,72.22
2023-06-11T12:35:29.638Z,74.88
2023-06-11T12:36:31.607Z,75.06
2023-06-11T12:37:33.227Z,73.40
2023-06-11T12:38:35.798Z,75.26
2023-06-11T12:39:38.939Z,72.48
2023-06-11T12:40:40.522Z,69.80
2023-06-11T12:41:42.230Z,71.17
2023-06-11T12:42:44.149Z,74.56
2023-06-11T12:43:45.720Z,75.78
2023-06-11T12:44:50.415Z,73.25
2023-06-11T12:45:52.079Z,74.56
2023-06-11T12:46:53.781Z,73.19
2023-06-11T12:47:56.046Z,71.65
2023-06-11T12:48:58.117Z,71.07
2023-06-11T12:49:59.942Z,70.66
2023-06-11T12:51:01.559Z,72.64
2023-06-11T12:52:03.236Z,72.02
2023-06-11T12:53:04.868Z,72.28
2023-06-11T12:54:06.499Z,73.61
2023-06-11T12:55:08.569Z,70.81
2023-06-11T12:56:10.167Z,71.59
2023-06-11T12:57:11.878Z,70.20
2023-06-11T12:58:13.491Z,72.60
2023-06-11T12:59:15.074Z,72.50
2023-06-11T13:00:17.176Z,71.68
2023-06-11T13:01:18.968Z,71.78
2023-06-11T13:02:20.655Z,73.17
2023-06-11T13:03:22.242Z,72.21
2023-06-11T13:04:25.069Z,72.63
2023-06-11T13:05:26.685Z,73.96
2023-06-11T13:06:28.305Z,72.76
2023-06-11T13:07:29.891Z,72.09
2023-06-11T13:08:31.517Z,71.44
2023-06-11T13:09:33.283Z,71.50
2023-06-11T13:10:34.877Z,72.16
2023-06-11T13:11:37.211Z,71.51
2023-06-11T13:12:39.127Z,70.43
2023-06-11T13:13:40.704Z,70.45